sensor_id;sensor_type;location;lat;lon;timestamp;temperature;humidity
5023;DHT22;2530;47.990;7.866;2023-03-13T00:00:18;13.20;1.00
5023;DHT22;2530;47.990;7.866;2023-03-13T00:02:44;13.30;1.00
5023;DHT22;2530;47.990;7.866;2023-03-13T00:05:12;13.30;1.00
5023;DHT22;2530;47.990;7.866;2023-03-13T00:07:38;13.30;1.00
5023;DHT22;2530;47.990;7.866;2023-03-13T00:10:05;13.40;1.00
5023;DHT22;2530;47.990;7.866;2023-03-13T00:12:31;13.40;1.00
5023;DHT22;2530;47.990;7.866;2023-03-13T00:14:56;13.40;1.00
5023;DHT22;2530;47.990;7.866;2023-03-13T00:17:22;13.50;1.00
5023;DHT22;2530;47.990;7.866;2023-03-13T00:19:49;13.40;1.00
5023;DHT22;2530;47.990;7.866;2023-03-13T00:22:14;13.50;1.00
5023;DHT22;2530;47.990;7.866;2023-03-13T00:24:40;13.50;1.00
5023;DHT22;2530;47.990;7.866;2023-03-13T00:27:05;13.50;1.00
5023;DHT22;2530;47.990;7.866;2023-03-13T00:29:32;13.50;1.00
5023;DHT22;2530;47.990;7.866;2023-03-13T00:31:58;13.40;1.00
5023;DHT22;2530;47.990;7.866;2023-03-13T00:34:23;13.40;1.00
5023;DHT22;2530;47.990;7.866;2023-03-13T00:36:52;13.40;1.00
5023;DHT22;2530;47.990;7.866;2023-03-13T00:39:17;13.50;1.00
5023;DHT22;2530;47.990;7.866;2023-03-13T00:41:43;13.40;1.00
5023;DHT22;2530;47.990;7.866;2023-03-13T00:44:09;13.50;1.00
5023;DHT22;2530;47.990;7.866;2023-03-13T00:46:35;13.50;1.00
5023;DHT22;2530;47.990;7.866;2023-03-13T00:49:01;13.60;1.00
5023;DHT22;2530;47.990;7.866;2023-03-13T00:51:27;13.60;1.00
5023;DHT22;2530;47.990;7.866;2023-03-13T00:53:57;13.60;1.00
5023;DHT22;2530;47.990;7.866;2023-03-13T00:56:25;13.50;1.00
5023;DHT22;2530;47.990;7.866;2023-03-13T00:58:51;13.60;1.00
5023;DHT22;2530;47.990;7.866;2023-03-13T01:01:24;13.60;1.00
5023;DHT22;2530;47.990;7.866;2023-03-13T01:03:53;13.70;1.00
5023;DHT22;2530;47.990;7.866;2023-03-13T01:06:21;13.60;1.00
5023;DHT22;2530;47.990;7.866;2023-03-13T01:08:48;13.70;1.00
5023;DHT22;2530;47.990;7.866;2023-03-13T01:11:20;13.90;1.00
5023;DHT22;2530;47.990;7.866;2023-03-13T01:13:46;13.80;1.00
5023;DHT22;2530;47.990;7.866;2023-03-13T01:16:17;13.80;1.00
5023;DHT22;2530;47.990;7.866;2023-03-13T01:18:46;13.90;1.00
5023;DHT22;2530;47.990;7.866;2023-03-13T01:21:13;13.90;1.00
5023;DHT22;2530;47.990;7.866;2023-03-13T01:23:39;13.90;99.90
5023;DHT22;2530;47.990;7.866;2023-03-13T01:26:05;13.90;1.00
5023;DHT22;2530;47.990;7.866;2023-03-13T01:28:32;13.80;1.00
5023;DHT22;2530;47.990;7.866;2023-03-13T01:30:59;13.60;99.90
5023;DHT22;2530;47.990;7.866;2023-03-13T01:33:24;13.50;1.00
5023;DHT22;2530;47.990;7.866;2023-03-13T01:35:50;13.30;99.90
5023;DHT22;2530;47.990;7.866;2023-03-13T01:38:16;13.20;1.00
5023;DHT22;2530;47.990;7.866;2023-03-13T01:40:44;13.10;1.00
5023;DHT22;2530;47.990;7.866;2023-03-13T01:43:19;12.90;1.00
5023;DHT22;2530;47.990;7.866;2023-03-13T01:45:55;12.80;1.00
5023;DHT22;2530;47.990;7.866;2023-03-13T01:48:33;12.70;99.90
5023;DHT22;2530;47.990;7.866;2023-03-13T01:51:01;12.70;99.90
5023;DHT22;2530;47.990;7.866;2023-03-13T01:53:28;12.60;92.50
5023;DHT22;2530;47.990;7.866;2023-03-13T01:55:56;12.60;1.00
5023;DHT22;2530;47.990;7.866;2023-03-13T01:58:22;12.60;1.00
5023;DHT22;2530;47.990;7.866;2023-03-13T02:00:48;12.80;1.00
5023;DHT22;2530;47.990;7.866;2023-03-13T02:03:16;12.70;1.00
5023;DHT22;2530;47.990;7.866;2023-03-13T02:05:43;12.80;94.00
5023;DHT22;2530;47.990;7.866;2023-03-13T02:08:17;12.80;99.90
5023;DHT22;2530;47.990;7.866;2023-03-13T02:10:49;13.00;99.90
5023;DHT22;2530;47.990;7.866;2023-03-13T02:13:17;13.10;99.90
5023;DHT22;2530;47.990;7.866;2023-03-13T02:15:43;13.10;99.90
5023;DHT22;2530;47.990;7.866;2023-03-13T02:18:10;13.10;1.00
5023;DHT22;2530;47.990;7.866;2023-03-13T02:20:37;13.20;1.00
5023;DHT22;2530;47.990;7.866;2023-03-13T02:23:28;13.20;1.00
5023;DHT22;2530;47.990;7.866;2023-03-13T02:25:55;13.10;1.00
5023;DHT22;2530;47.990;7.866;2023-03-13T02:28:26;13.10;99.90
5023;DHT22;2530;47.990;7.866;2023-03-13T02:30:54;13.10;99.90
5023;DHT22;2530;47.990;7.866;2023-03-13T02:33:21;13.30;1.00
5023;DHT22;2530;47.990;7.866;2023-03-13T02:35:50;13.30;1.00
5023;DHT22;2530;47.990;7.866;2023-03-13T02:38:22;13.20;30.00
5023;DHT22;2530;47.990;7.866;2023-03-13T02:40:50;13.20;1.00
5023;DHT22;2530;47.990;7.866;2023-03-13T02:43:31;13.30;1.00
5023;DHT22;2530;47.990;7.866;2023-03-13T02:46:11;13.30;1.00
5023;DHT22;2530;47.990;7.866;2023-03-13T02:48:40;13.20;1.00
5023;DHT22;2530;47.990;7.866;2023-03-13T02:53:43;13.40;99.90
5023;DHT22;2530;47.990;7.866;2023-03-13T02:56:11;13.40;99.90
5023;DHT22;2530;47.990;7.866;2023-03-13T02:58:40;13.30;1.00
5023;DHT22;2530;47.990;7.866;2023-03-13T03:01:06;13.30;99.90
5023;DHT22;2530;47.990;7.866;2023-03-13T03:03:36;13.30;1.00
5023;DHT22;2530;47.990;7.866;2023-03-13T03:06:03;13.30;1.00
5023;DHT22;2530;47.990;7.866;2023-03-13T03:08:28;13.30;1.00
5023;DHT22;2530;47.990;7.866;2023-03-13T03:10:54;13.30;99.90
5023;DHT22;2530;47.990;7.866;2023-03-13T03:13:19;13.30;99.90
5023;DHT22;2530;47.990;7.866;2023-03-13T03:15:45;13.20;99.90
5023;DHT22;2530;47.990;7.866;2023-03-13T03:18:11;13.20;1.00
5023;DHT22;2530;47.990;7.866;2023-03-13T03:20:36;13.10;1.00
5023;DHT22;2530;47.990;7.866;2023-03-13T03:23:02;13.10;99.90
5023;DHT22;2530;47.990;7.866;2023-03-13T03:25:27;13.00;1.00
5023;DHT22;2530;47.990;7.866;2023-03-13T03:27:53;13.00;1.00
5023;DHT22;2530;47.990;7.866;2023-03-13T03:30:18;13.00;1.00
5023;DHT22;2530;47.990;7.866;2023-03-13T03:32:44;12.90;99.90
5023;DHT22;2530;47.990;7.866;2023-03-13T03:35:09;12.90;99.90
5023;DHT22;2530;47.990;7.866;2023-03-13T03:37:35;12.90;99.90
5023;DHT22;2530;47.990;7.866;2023-03-13T03:40:00;12.80;99.90
5023;DHT22;2530;47.990;7.866;2023-03-13T03:42:26;12.80;99.90
5023;DHT22;2530;47.990;7.866;2023-03-13T03:44:51;12.70;99.90
5023;DHT22;2530;47.990;7.866;2023-03-13T03:47:17;12.70;99.90
5023;DHT22;2530;47.990;7.866;2023-03-13T03:49:42;12.70;1.00
5023;DHT22;2530;47.990;7.866;2023-03-13T03:52:08;12.50;1.00
5023;DHT22;2530;47.990;7.866;2023-03-13T03:54:33;12.20;86.90
5023;DHT22;2530;47.990;7.866;2023-03-13T03:56:59;11.90;99.90
5023;DHT22;2530;47.990;7.866;2023-03-13T03:59:25;11.80;99.90
5023;DHT22;2530;47.990;7.866;2023-03-13T04:01:50;11.70;99.90
5023;DHT22;2530;47.990;7.866;2023-03-13T04:04:16;11.70;99.90
5023;DHT22;2530;47.990;7.866;2023-03-13T04:06:41;11.60;99.90
5023;DHT22;2530;47.990;7.866;2023-03-13T04:09:07;11.80;99.90
5023;DHT22;2530;47.990;7.866;2023-03-13T04:11:32;11.60;99.90
5023;DHT22;2530;47.990;7.866;2023-03-13T04:13:58;11.70;99.90
5023;DHT22;2530;47.990;7.866;2023-03-13T04:16:23;11.80;99.90
5023;DHT22;2530;47.990;7.866;2023-03-13T04:18:49;12.00;1.00
5023;DHT22;2530;47.990;7.866;2023-03-13T04:21:14;12.10;1.00
5023;DHT22;2530;47.990;7.866;2023-03-13T04:23:40;12.30;1.00
5023;DHT22;2530;47.990;7.866;2023-03-13T04:26:05;12.40;1.00
5023;DHT22;2530;47.990;7.866;2023-03-13T04:28:31;12.60;1.00
5023;DHT22;2530;47.990;7.866;2023-03-13T04:30:56;12.60;1.00
5023;DHT22;2530;47.990;7.866;2023-03-13T04:33:23;12.60;1.00
5023;DHT22;2530;47.990;7.866;2023-03-13T04:35:49;12.60;1.00
5023;DHT22;2530;47.990;7.866;2023-03-13T04:38:14;12.60;1.00
5023;DHT22;2530;47.990;7.866;2023-03-13T04:40:40;12.70;1.00
5023;DHT22;2530;47.990;7.866;2023-03-13T04:43:07;12.70;1.00
5023;DHT22;2530;47.990;7.866;2023-03-13T04:45:33;12.60;1.00
5023;DHT22;2530;47.990;7.866;2023-03-13T04:47:58;12.70;99.90
5023;DHT22;2530;47.990;7.866;2023-03-13T04:50:24;12.80;99.90
5023;DHT22;2530;47.990;7.866;2023-03-13T04:52:50;12.80;99.90
5023;DHT22;2530;47.990;7.866;2023-03-13T04:55:15;12.70;1.00
5023;DHT22;2530;47.990;7.866;2023-03-13T04:57:41;12.60;1.00
5023;DHT22;2530;47.990;7.866;2023-03-13T05:00:07;12.60;1.00
5023;DHT22;2530;47.990;7.866;2023-03-13T05:02:33;12.50;1.00
5023;DHT22;2530;47.990;7.866;2023-03-13T05:04:58;12.30;99.90
5023;DHT22;2530;47.990;7.866;2023-03-13T05:07:24;12.00;99.90
5023;DHT22;2530;47.990;7.866;2023-03-13T05:09:49;11.80;99.90
5023;DHT22;2530;47.990;7.866;2023-03-13T05:12:15;11.80;99.90
5023;DHT22;2530;47.990;7.866;2023-03-13T05:14:40;11.80;99.90
5023;DHT22;2530;47.990;7.866;2023-03-13T05:17:06;11.90;99.90
5023;DHT22;2530;47.990;7.866;2023-03-13T05:19:31;11.90;99.90
5023;DHT22;2530;47.990;7.866;2023-03-13T05:21:57;11.90;99.90
5023;DHT22;2530;47.990;7.866;2023-03-13T05:24:22;11.80;99.90
5023;DHT22;2530;47.990;7.866;2023-03-13T05:26:48;13.80;99.90
5023;DHT22;2530;47.990;7.866;2023-03-13T05:29:13;11.80;99.90
5023;DHT22;2530;47.990;7.866;2023-03-13T05:31:39;11.80;99.90
5023;DHT22;2530;47.990;7.866;2023-03-13T05:34:04;11.80;99.90
5023;DHT22;2530;47.990;7.866;2023-03-13T05:36:30;11.90;99.90
5023;DHT22;2530;47.990;7.866;2023-03-13T05:38:56;11.90;99.90
5023;DHT22;2530;47.990;7.866;2023-03-13T05:41:21;12.00;99.90
5023;DHT22;2530;47.990;7.866;2023-03-13T05:43:47;12.20;1.00
5023;DHT22;2530;47.990;7.866;2023-03-13T05:46:13;12.20;1.00
5023;DHT22;2530;47.990;7.866;2023-03-13T05:48:38;12.20;1.00
5023;DHT22;2530;47.990;7.866;2023-03-13T05:51:04;12.30;1.00
5023;DHT22;2530;47.990;7.866;2023-03-13T05:53:30;12.30;1.00
5023;DHT22;2530;47.990;7.866;2023-03-13T05:55:55;12.40;1.00
5023;DHT22;2530;47.990;7.866;2023-03-13T05:58:21;12.50;1.00
5023;DHT22;2530;47.990;7.866;2023-03-13T06:00:46;12.60;1.00
5023;DHT22;2530;47.990;7.866;2023-03-13T06:03:13;12.60;1.00
5023;DHT22;2530;47.990;7.866;2023-03-13T06:05:38;12.70;1.00
5023;DHT22;2530;47.990;7.866;2023-03-13T06:08:04;12.70;1.00
5023;DHT22;2530;47.990;7.866;2023-03-13T06:10:29;12.80;1.00
5023;DHT22;2530;47.990;7.866;2023-03-13T06:12:56;12.80;1.00
5023;DHT22;2530;47.990;7.866;2023-03-13T06:15:22;12.80;1.00
5023;DHT22;2530;47.990;7.866;2023-03-13T06:17:48;12.90;1.00
5023;DHT22;2530;47.990;7.866;2023-03-13T06:20:13;12.80;1.00
5023;DHT22;2530;47.990;7.866;2023-03-13T06:22:40;12.90;1.00
5023;DHT22;2530;47.990;7.866;2023-03-13T06:25:06;12.90;1.00
5023;DHT22;2530;47.990;7.866;2023-03-13T06:27:31;13.00;1.00
5023;DHT22;2530;47.990;7.866;2023-03-13T06:29:57;13.10;1.00
5023;DHT22;2530;47.990;7.866;2023-03-13T06:32:22;13.10;1.00
5023;DHT22;2530;47.990;7.866;2023-03-13T06:34:48;13.10;1.00
5023;DHT22;2530;47.990;7.866;2023-03-13T06:37:13;13.00;1.00
5023;DHT22;2530;47.990;7.866;2023-03-13T06:39:39;13.10;1.00
5023;DHT22;2530;47.990;7.866;2023-03-13T06:42:05;13.10;1.00
5023;DHT22;2530;47.990;7.866;2023-03-13T06:44:30;13.10;1.00
5023;DHT22;2530;47.990;7.866;2023-03-13T06:46:56;13.20;1.00
5023;DHT22;2530;47.990;7.866;2023-03-13T06:49:21;13.30;1.00
5023;DHT22;2530;47.990;7.866;2023-03-13T06:51:47;13.30;1.00
5023;DHT22;2530;47.990;7.866;2023-03-13T06:54:12;13.40;1.00
5023;DHT22;2530;47.990;7.866;2023-03-13T06:56:38;13.50;1.00
5023;DHT22;2530;47.990;7.866;2023-03-13T06:59:03;13.50;1.00
5023;DHT22;2530;47.990;7.866;2023-03-13T07:01:29;13.60;1.00
5023;DHT22;2530;47.990;7.866;2023-03-13T07:03:55;13.60;1.00
5023;DHT22;2530;47.990;7.866;2023-03-13T07:06:20;13.60;1.00
5023;DHT22;2530;47.990;7.866;2023-03-13T07:08:45;13.60;1.00
5023;DHT22;2530;47.990;7.866;2023-03-13T07:11:12;13.70;1.00
5023;DHT22;2530;47.990;7.866;2023-03-13T07:13:38;13.80;1.00
5023;DHT22;2530;47.990;7.866;2023-03-13T07:16:09;13.80;1.00
5023;DHT22;2530;47.990;7.866;2023-03-13T07:18:36;13.80;1.00
5023;DHT22;2530;47.990;7.866;2023-03-13T07:21:03;13.80;1.00
5023;DHT22;2530;47.990;7.866;2023-03-13T07:23:33;13.80;1.00
5023;DHT22;2530;47.990;7.866;2023-03-13T07:26:01;13.90;1.00
5023;DHT22;2530;47.990;7.866;2023-03-13T07:28:28;13.90;1.00
5023;DHT22;2530;47.990;7.866;2023-03-13T07:31:01;13.90;1.00
5023;DHT22;2530;47.990;7.866;2023-03-13T07:33:27;14.00;1.00
5023;DHT22;2530;47.990;7.866;2023-03-13T07:35:53;14.10;1.00
5023;DHT22;2530;47.990;7.866;2023-03-13T07:38:19;14.10;1.00
5023;DHT22;2530;47.990;7.866;2023-03-13T07:40:52;14.20;1.00
5023;DHT22;2530;47.990;7.866;2023-03-13T07:43:18;14.20;1.00
5023;DHT22;2530;47.990;7.866;2023-03-13T07:48:17;14.40;99.90
5023;DHT22;2530;47.990;7.866;2023-03-13T07:50:42;14.40;99.90
5023;DHT22;2530;47.990;7.866;2023-03-13T07:53:08;14.50;99.90
5023;DHT22;2530;47.990;7.866;2023-03-13T07:55:33;14.50;99.90
5023;DHT22;2530;47.990;7.866;2023-03-13T07:57:59;14.60;99.90
5023;DHT22;2530;47.990;7.866;2023-03-13T08:00:24;14.60;99.90
5023;DHT22;2530;47.990;7.866;2023-03-13T08:02:50;14.70;99.90
5023;DHT22;2530;47.990;7.866;2023-03-13T08:05:15;14.80;99.90
5023;DHT22;2530;47.990;7.866;2023-03-13T08:07:43;14.80;99.90
5023;DHT22;2530;47.990;7.866;2023-03-13T08:10:09;15.00;1.00
5023;DHT22;2530;47.990;7.866;2023-03-13T08:12:35;15.10;1.00
5023;DHT22;2530;47.990;7.866;2023-03-13T08:15:00;15.10;99.90
5023;DHT22;2530;47.990;7.866;2023-03-13T08:17:28;15.00;1.00
5023;DHT22;2530;47.990;7.866;2023-03-13T08:19:54;15.20;1.00
5023;DHT22;2530;47.990;7.866;2023-03-13T08:22:19;15.30;1.00
5023;DHT22;2530;47.990;7.866;2023-03-13T08:24:45;15.30;99.90
5023;DHT22;2530;47.990;7.866;2023-03-13T08:27:10;15.30;99.90
5023;DHT22;2530;47.990;7.866;2023-03-13T08:29:36;15.30;1.00
5023;DHT22;2530;47.990;7.866;2023-03-13T08:32:01;15.30;99.90
5023;DHT22;2530;47.990;7.866;2023-03-13T08:34:27;15.20;1.30
5023;DHT22;2530;47.990;7.866;2023-03-13T08:36:52;15.30;99.90
5023;DHT22;2530;47.990;7.866;2023-03-13T08:39:19;15.30;99.90
5023;DHT22;2530;47.990;7.866;2023-03-13T08:41:45;15.30;99.90
5023;DHT22;2530;47.990;7.866;2023-03-13T08:44:13;15.50;60.20
5023;DHT22;2530;47.990;7.866;2023-03-13T08:46:39;15.70;1.00
5023;DHT22;2530;47.990;7.866;2023-03-13T08:49:06;15.80;99.90
5023;DHT22;2530;47.990;7.866;2023-03-13T08:51:32;15.90;99.90
5023;DHT22;2530;47.990;7.866;2023-03-13T08:53:57;15.90;1.00
5023;DHT22;2530;47.990;7.866;2023-03-13T08:56:25;15.90;1.00
5023;DHT22;2530;47.990;7.866;2023-03-13T08:58:59;15.90;1.00
5023;DHT22;2530;47.990;7.866;2023-03-13T09:01:26;15.90;1.00
5023;DHT22;2530;47.990;7.866;2023-03-13T09:03:52;16.00;1.00
5023;DHT22;2530;47.990;7.866;2023-03-13T09:06:18;16.20;1.00
5023;DHT22;2530;47.990;7.866;2023-03-13T09:08:44;16.20;1.00
5023;DHT22;2530;47.990;7.866;2023-03-13T09:11:12;16.10;1.00
5023;DHT22;2530;47.990;7.866;2023-03-13T09:13:40;16.00;99.90
5023;DHT22;2530;47.990;7.866;2023-03-13T09:16:09;15.90;1.00
5023;DHT22;2530;47.990;7.866;2023-03-13T09:18:35;15.90;99.90
5023;DHT22;2530;47.990;7.866;2023-03-13T09:21:02;15.80;99.90
5023;DHT22;2530;47.990;7.866;2023-03-13T09:23:28;15.90;99.90
5023;DHT22;2530;47.990;7.866;2023-03-13T09:25:55;16.00;98.60
5023;DHT22;2530;47.990;7.866;2023-03-13T09:28:22;16.30;1.00
5023;DHT22;2530;47.990;7.866;2023-03-13T09:30:48;16.40;1.00
5023;DHT22;2530;47.990;7.866;2023-03-13T09:33:15;16.50;99.90
5023;DHT22;2530;47.990;7.866;2023-03-13T09:35:40;16.60;43.70
5023;DHT22;2530;47.990;7.866;2023-03-13T09:38:06;16.50;99.90
5023;DHT22;2530;47.990;7.866;2023-03-13T09:40:37;16.40;1.00
5023;DHT22;2530;47.990;7.866;2023-03-13T09:46:02;16.80;1.00
5023;DHT22;2530;47.990;7.866;2023-03-13T09:48:46;17.10;1.00
5023;DHT22;2530;47.990;7.866;2023-03-13T09:51:35;17.20;99.90
5023;DHT22;2530;47.990;7.866;2023-03-13T09:54:33;17.50;1.00
5023;DHT22;2530;47.990;7.866;2023-03-13T10:02:34;18.00;99.90
5023;DHT22;2530;47.990;7.866;2023-03-13T10:05:18;17.80;99.90
5023;DHT22;2530;47.990;7.866;2023-03-13T10:07:44;17.80;99.90
5023;DHT22;2530;47.990;7.866;2023-03-13T10:10:14;17.80;99.90
5023;DHT22;2530;47.990;7.866;2023-03-13T10:12:44;17.90;99.90
5023;DHT22;2530;47.990;7.866;2023-03-13T10:18:15;18.00;99.90
5023;DHT22;2530;47.990;7.866;2023-03-13T10:20:42;18.10;99.90
5023;DHT22;2530;47.990;7.866;2023-03-13T10:23:26;18.10;99.90
5023;DHT22;2530;47.990;7.866;2023-03-13T10:25:57;18.40;99.90
5023;DHT22;2530;47.990;7.866;2023-03-13T10:28:23;18.60;99.90
5023;DHT22;2530;47.990;7.866;2023-03-13T10:30:58;18.40;60.30
5023;DHT22;2530;47.990;7.866;2023-03-13T10:33:27;18.40;11.60
5023;DHT22;2530;47.990;7.866;2023-03-13T10:36:02;18.70;23.70
5023;DHT22;2530;47.990;7.866;2023-03-13T10:38:32;19.10;1.00
5023;DHT22;2530;47.990;7.866;2023-03-13T10:41:00;19.20;1.00
5023;DHT22;2530;47.990;7.866;2023-03-13T10:43:31;19.00;1.00
5023;DHT22;2530;47.990;7.866;2023-03-13T10:45:57;19.10;1.00
5023;DHT22;2530;47.990;7.866;2023-03-13T10:48:25;18.90;1.00
5023;DHT22;2530;47.990;7.866;2023-03-13T10:50:55;19.00;1.00
5023;DHT22;2530;47.990;7.866;2023-03-13T10:53:23;19.10;1.00
5023;DHT22;2530;47.990;7.866;2023-03-13T10:55:54;19.20;1.00
5023;DHT22;2530;47.990;7.866;2023-03-13T10:58:40;19.10;1.00
5023;DHT22;2530;47.990;7.866;2023-03-13T11:01:22;19.50;1.00
5023;DHT22;2530;47.990;7.866;2023-03-13T11:03:49;19.50;1.00
5023;DHT22;2530;47.990;7.866;2023-03-13T11:06:24;19.60;1.00
5023;DHT22;2530;47.990;7.866;2023-03-13T11:08:58;19.60;99.90
5023;DHT22;2530;47.990;7.866;2023-03-13T11:11:23;19.60;99.90
5023;DHT22;2530;47.990;7.866;2023-03-13T11:13:59;19.50;99.90
5023;DHT22;2530;47.990;7.866;2023-03-13T11:16:31;19.50;99.90
5023;DHT22;2530;47.990;7.866;2023-03-13T11:19:15;19.70;99.90
5023;DHT22;2530;47.990;7.866;2023-03-13T11:24:44;20.00;99.90
5023;DHT22;2530;47.990;7.866;2023-03-13T11:27:34;20.20;99.90
5023;DHT22;2530;47.990;7.866;2023-03-13T11:30:14;20.30;99.90
5023;DHT22;2530;47.990;7.866;2023-03-13T11:35:25;20.20;99.90
5023;DHT22;2530;47.990;7.866;2023-03-13T11:37:55;20.60;99.90
5023;DHT22;2530;47.990;7.866;2023-03-13T11:40:32;21.30;99.90
5023;DHT22;2530;47.990;7.866;2023-03-13T11:57:27;22.00;99.90
5023;DHT22;2530;47.990;7.866;2023-03-13T12:00:20;22.40;99.90
5023;DHT22;2530;47.990;7.866;2023-03-13T12:03:01;23.00;99.90
5023;DHT22;2530;47.990;7.866;2023-03-13T12:06:10;22.80;99.90
5023;DHT22;2530;47.990;7.866;2023-03-13T12:08:41;22.90;99.90
5023;DHT22;2530;47.990;7.866;2023-03-13T12:11:32;23.10;99.90
5023;DHT22;2530;47.990;7.866;2023-03-13T12:14:08;23.20;99.90
5023;DHT22;2530;47.990;7.866;2023-03-13T12:16:45;22.40;99.90
5023;DHT22;2530;47.990;7.866;2023-03-13T12:19:16;22.20;99.90
5023;DHT22;2530;47.990;7.866;2023-03-13T12:21:49;22.10;99.90
5023;DHT22;2530;47.990;7.866;2023-03-13T12:24:33;22.30;99.90
5023;DHT22;2530;47.990;7.866;2023-03-13T12:27:04;22.50;99.90
5023;DHT22;2530;47.990;7.866;2023-03-13T12:30:06;22.80;99.90
5023;DHT22;2530;47.990;7.866;2023-03-13T12:32:39;23.00;99.90
5023;DHT22;2530;47.990;7.866;2023-03-13T12:37:45;23.10;99.90
5023;DHT22;2530;47.990;7.866;2023-03-13T12:43:10;23.60;99.90
5023;DHT22;2530;47.990;7.866;2023-03-13T12:45:48;23.00;99.90
5023;DHT22;2530;47.990;7.866;2023-03-13T12:53:52;24.60;99.90
5023;DHT22;2530;47.990;7.866;2023-03-13T12:59:09;24.10;99.90
5023;DHT22;2530;47.990;7.866;2023-03-13T13:01:50;23.90;99.90
5023;DHT22;2530;47.990;7.866;2023-03-13T13:04:45;23.60;99.90
5023;DHT22;2530;47.990;7.866;2023-03-13T13:12:46;23.30;99.90
5023;DHT22;2530;47.990;7.866;2023-03-13T13:15:24;22.90;99.90
5023;DHT22;2530;47.990;7.866;2023-03-13T13:17:57;22.80;99.90
5023;DHT22;2530;47.990;7.866;2023-03-13T13:20:29;22.70;99.90
5023;DHT22;2530;47.990;7.866;2023-03-13T13:22:55;22.40;99.90
5023;DHT22;2530;47.990;7.866;2023-03-13T13:25:33;22.60;99.90
5023;DHT22;2530;47.990;7.866;2023-03-13T13:30:51;22.60;99.90
5023;DHT22;2530;47.990;7.866;2023-03-13T13:35:46;22.40;99.90
5023;DHT22;2530;47.990;7.866;2023-03-13T13:38:32;22.20;99.90
5023;DHT22;2530;47.990;7.866;2023-03-13T13:43:32;22.70;99.90
5023;DHT22;2530;47.990;7.866;2023-03-13T13:46:01;24.30;99.90
5023;DHT22;2530;47.990;7.866;2023-03-13T13:48:34;24.70;99.90
5023;DHT22;2530;47.990;7.866;2023-03-13T14:01:24;21.90;99.90
5023;DHT22;2530;47.990;7.866;2023-03-13T14:03:53;21.50;99.90
5023;DHT22;2530;47.990;7.866;2023-03-13T14:06:26;21.50;99.90
5023;DHT22;2530;47.990;7.866;2023-03-13T14:08:57;21.40;99.90
5023;DHT22;2530;47.990;7.866;2023-03-13T14:11:31;21.30;99.90
5023;DHT22;2530;47.990;7.866;2023-03-13T14:14:27;21.60;99.90
5023;DHT22;2530;47.990;7.866;2023-03-13T14:16:55;21.80;99.90
5023;DHT22;2530;47.990;7.866;2023-03-13T14:21:57;21.70;99.90
5023;DHT22;2530;47.990;7.866;2023-03-13T14:24:23;21.60;99.90
5023;DHT22;2530;47.990;7.866;2023-03-13T14:26:49;21.70;99.90
5023;DHT22;2530;47.990;7.866;2023-03-13T14:29:16;22.00;99.90
5023;DHT22;2530;47.990;7.866;2023-03-13T14:31:52;22.40;99.90
5023;DHT22;2530;47.990;7.866;2023-03-13T14:34:17;22.70;99.90
5023;DHT22;2530;47.990;7.866;2023-03-13T14:36:57;22.80;99.90
5023;DHT22;2530;47.990;7.866;2023-03-13T14:42:03;22.40;99.90
5023;DHT22;2530;47.990;7.866;2023-03-13T14:44:31;22.20;99.90
5023;DHT22;2530;47.990;7.866;2023-03-13T14:47:32;23.90;99.90
5023;DHT22;2530;47.990;7.866;2023-03-13T14:50:03;25.80;99.90
5023;DHT22;2530;47.990;7.866;2023-03-13T14:52:30;26.50;99.90
5023;DHT22;2530;47.990;7.866;2023-03-13T14:55:04;27.30;95.00
5023;DHT22;2530;47.990;7.866;2023-03-13T14:57:33;27.80;90.20
5023;DHT22;2530;47.990;7.866;2023-03-13T15:06:32;27.70;52.10
5023;DHT22;2530;47.990;7.866;2023-03-13T15:08:35;26.80;43.90
5023;DHT22;2530;47.990;7.866;2023-03-13T15:11:02;27.30;44.50
5023;DHT22;2530;47.990;7.866;2023-03-13T15:13:41;26.90;39.40
5023;DHT22;2530;47.990;7.866;2023-03-13T15:16:15;27.10;40.50
5023;DHT22;2530;47.990;7.866;2023-03-13T15:18:42;27.40;40.20
5023;DHT22;2530;47.990;7.866;2023-03-13T15:23:50;25.90;31.10
5023;DHT22;2530;47.990;7.866;2023-03-13T15:26:16;26.90;33.70
5023;DHT22;2530;47.990;7.866;2023-03-13T15:28:42;27.20;31.00
5023;DHT22;2530;47.990;7.866;2023-03-13T15:31:11;26.80;26.60
5023;DHT22;2530;47.990;7.866;2023-03-13T15:33:36;24.40;21.40
5023;DHT22;2530;47.990;7.866;2023-03-13T15:36:02;23.70;22.60
5023;DHT22;2530;47.990;7.866;2023-03-13T15:38:28;23.50;25.50
5023;DHT22;2530;47.990;7.866;2023-03-13T15:40:54;23.20;26.00
5023;DHT22;2530;47.990;7.866;2023-03-13T15:43:20;23.00;27.90
5023;DHT22;2530;47.990;7.866;2023-03-13T15:45:47;24.20;32.20
5023;DHT22;2530;47.990;7.866;2023-03-13T15:48:19;24.40;30.70
5023;DHT22;2530;47.990;7.866;2023-03-13T15:50:49;25.10;32.50
5023;DHT22;2530;47.990;7.866;2023-03-13T15:53:52;25.30;34.70
5023;DHT22;2530;47.990;7.866;2023-03-13T15:56:16;24.60;30.30
5023;DHT22;2530;47.990;7.866;2023-03-13T15:58:43;23.90;41.10
5023;DHT22;2530;47.990;7.866;2023-03-13T16:01:13;23.80;23.90
5023;DHT22;2530;47.990;7.866;2023-03-13T16:03:39;23.50;23.70
5023;DHT22;2530;47.990;7.866;2023-03-13T16:06:25;23.30;21.50
5023;DHT22;2530;47.990;7.866;2023-03-13T16:09:01;22.90;19.90
5023;DHT22;2530;47.990;7.866;2023-03-13T16:11:28;23.10;17.60
5023;DHT22;2530;47.990;7.866;2023-03-13T16:13:54;23.20;16.20
5023;DHT22;2530;47.990;7.866;2023-03-13T16:16:31;23.00;12.80
5023;DHT22;2530;47.990;7.866;2023-03-13T16:18:58;22.90;11.30
5023;DHT22;2530;47.990;7.866;2023-03-13T16:21:27;22.60;8.20
5023;DHT22;2530;47.990;7.866;2023-03-13T16:23:54;22.40;7.10
5023;DHT22;2530;47.990;7.866;2023-03-13T16:26:25;22.30;7.20
5023;DHT22;2530;47.990;7.866;2023-03-13T16:28:52;22.20;7.00
5023;DHT22;2530;47.990;7.866;2023-03-13T16:31:23;22.10;7.70
5023;DHT22;2530;47.990;7.866;2023-03-13T16:33:50;21.90;7.40
5023;DHT22;2530;47.990;7.866;2023-03-13T16:36:21;21.90;8.40
5023;DHT22;2530;47.990;7.866;2023-03-13T16:38:48;21.90;8.50
5023;DHT22;2530;47.990;7.866;2023-03-13T16:41:16;21.90;8.40
5023;DHT22;2530;47.990;7.866;2023-03-13T16:43:42;22.00;6.40
5023;DHT22;2530;47.990;7.866;2023-03-13T16:46:12;22.10;5.40
5023;DHT22;2530;47.990;7.866;2023-03-13T16:48:39;22.00;4.20
5023;DHT22;2530;47.990;7.866;2023-03-13T16:51:04;21.90;4.10
5023;DHT22;2530;47.990;7.866;2023-03-13T16:53:30;21.90;3.90
5023;DHT22;2530;47.990;7.866;2023-03-13T16:55:55;21.80;3.80
5023;DHT22;2530;47.990;7.866;2023-03-13T16:58:21;21.70;2.90
5023;DHT22;2530;47.990;7.866;2023-03-13T17:00:46;21.60;3.30
5023;DHT22;2530;47.990;7.866;2023-03-13T17:03:12;21.60;3.40
5023;DHT22;2530;47.990;7.866;2023-03-13T17:05:37;21.60;2.80
5023;DHT22;2530;47.990;7.866;2023-03-13T17:08:04;21.40;3.00
5023;DHT22;2530;47.990;7.866;2023-03-13T17:10:31;21.40;3.00
5023;DHT22;2530;47.990;7.866;2023-03-13T17:12:57;21.30;2.40
5023;DHT22;2530;47.990;7.866;2023-03-13T17:15:25;21.30;2.20
5023;DHT22;2530;47.990;7.866;2023-03-13T17:17:51;21.30;1.40
5023;DHT22;2530;47.990;7.866;2023-03-13T17:20:23;21.30;1.90
5023;DHT22;2530;47.990;7.866;2023-03-13T17:22:49;21.20;2.20
5023;DHT22;2530;47.990;7.866;2023-03-13T17:25:15;21.10;2.40
5023;DHT22;2530;47.990;7.866;2023-03-13T17:27:42;20.90;2.10
5023;DHT22;2530;47.990;7.866;2023-03-13T17:30:27;20.70;2.30
5023;DHT22;2530;47.990;7.866;2023-03-13T17:32:54;20.80;3.20
5023;DHT22;2530;47.990;7.866;2023-03-13T17:35:21;20.60;3.20
5023;DHT22;2530;47.990;7.866;2023-03-13T17:37:47;20.30;4.20
5023;DHT22;2530;47.990;7.866;2023-03-13T17:40:21;20.30;4.90
5023;DHT22;2530;47.990;7.866;2023-03-13T17:42:47;20.40;4.90
5023;DHT22;2530;47.990;7.866;2023-03-13T17:45:13;20.30;5.30
5023;DHT22;2530;47.990;7.866;2023-03-13T17:47:39;20.20;7.90